createdAt,value
2017-10-26T00:01:10.180Z,85.55
2017-10-26T00:02:22.460Z,85.31
2017-10-26T00:03:35.085Z,85.74
2017-10-26T00:04:47.341Z,86.12
2017-10-26T00:06:00.240Z,86.22
2017-10-26T00:07:12.840Z,86.32
2017-10-26T00:08:25.464Z,86.32
2017-10-26T00:09:37.760Z,86.03
2017-10-26T00:10:50.051Z,86.41
2017-10-26T00:12:02.344Z,86.41
2017-10-26T00:13:14.618Z,86.51
2017-10-26T00:14:26.892Z,86.51
2017-10-26T00:15:39.213Z,86.79
2017-10-26T00:16:51.809Z,87.27
2017-10-26T00:18:04.403Z,86.88
2017-10-26T00:19:17.018Z,87.07
2017-10-26T00:20:29.646Z,87.17
2017-10-26T00:21:41.609Z,86.88
2017-10-26T00:22:54.234Z,87.36
2017-10-26T00:24:06.510Z,87.27
2017-10-26T00:25:19.102Z,87.36
2017-10-26T00:26:31.675Z,87.27
2017-10-26T00:27:44.558Z,86.88
2017-10-26T00:28:57.194Z,86.98
2017-10-26T00:30:09.782Z,87.07
2017-10-26T00:31:22.407Z,87.17
2017-10-26T00:32:34.719Z,87.17
2017-10-26T00:33:47.018Z,87.07
2017-10-26T00:34:59.294Z,87.17
2017-10-26T00:36:11.914Z,87.07
2017-10-26T00:37:24.227Z,86.88
2017-10-26T00:38:37.150Z,86.69
2017-10-26T00:39:49.448Z,86.55
2017-10-26T00:41:01.068Z,86.51
2017-10-26T00:42:13.031Z,86.36
2017-10-26T00:43:25.627Z,86.79
2017-10-26T00:44:38.229Z,86.27
2017-10-26T00:45:50.504Z,86.18
2017-10-26T00:47:03.149Z,86.27
2017-10-26T00:48:15.743Z,86.55
2017-10-26T00:49:28.397Z,85.89
2017-10-26T00:50:40.986Z,86.18
2017-10-26T00:51:53.274Z,85.99
2017-10-26T00:53:05.900Z,86.08
2017-10-26T00:54:18.520Z,86.27
2017-10-26T00:55:31.141Z,86.18
2017-10-26T00:56:43.113Z,86.08
2017-10-26T00:57:55.110Z,86.27
2017-10-26T00:59:07.405Z,85.7
2017-10-26T01:00:19.393Z,86.18
2017-10-26T01:01:31.690Z,85.22
2017-10-26T01:02:44.324Z,85.41
2017-10-26T01:03:56.913Z,85.41
2017-10-26T01:05:09.533Z,85.41
2017-10-26T01:06:22.129Z,84.84
2017-10-26T01:07:34.750Z,85.41
2017-10-26T01:08:47.389Z,85.51
2017-10-26T01:09:59.996Z,85.41
2017-10-26T01:11:12.559Z,85.41
2017-10-26T01:12:25.180Z,85.32
2017-10-26T01:13:37.800Z,85.41
2017-10-26T01:14:50.438Z,85.41
2017-10-26T01:16:03.018Z,85.32
2017-10-26T01:17:15.316Z,85.41
2017-10-26T01:18:27.914Z,85.41
2017-10-26T01:19:40.524Z,84.94
2017-10-26T01:20:52.849Z,85.03
2017-10-26T01:22:05.471Z,85.51
2017-10-26T01:23:18.111Z,85.41
2017-10-26T01:24:30.410Z,85.41
2017-10-26T01:25:43.033Z,85.32
2017-10-26T01:26:55.305Z,85.32
2017-10-26T01:28:06.969Z,84.94
2017-10-26T01:29:19.589Z,84.94
2017-10-26T01:30:32.195Z,84.94
2017-10-26T01:31:44.788Z,84.84
2017-10-26T01:32:57.102Z,84.27
2017-10-26T01:34:09.731Z,84.17
2017-10-26T01:35:22.350Z,83.89
2017-10-26T01:36:34.948Z,83.75
2017-10-26T01:37:47.565Z,83.98
2017-10-26T01:38:59.883Z,83.51
2017-10-26T01:40:12.197Z,83.32
2017-10-26T01:41:24.829Z,83.51
2017-10-26T01:42:37.475Z,83.61
2017-10-26T01:43:50.137Z,82.84
2017-10-26T01:45:02.740Z,82.7
2017-10-26T01:46:15.352Z,82.04
2017-10-26T01:47:27.981Z,82.23
2017-10-26T01:48:40.552Z,81.95
2017-10-26T01:49:53.165Z,81.95
2017-10-26T01:51:05.472Z,81.47
2017-10-26T01:52:18.061Z,81.13
2017-10-26T01:53:30.352Z,81.13
2017-10-26T01:54:42.898Z,80.42
2017-10-26T01:55:55.528Z,80.65
2017-10-26T01:57:08.136Z,80.27
2017-10-26T01:58:20.436Z,80.42
2017-10-26T01:59:32.401Z,80.08
2017-10-26T02:00:45.034Z,79.7
2017-10-26T02:01:57.643Z,79.8
2017-10-26T02:03:10.255Z,79.41
2017-10-26T02:04:22.846Z,79.22
2017-10-26T02:05:35.436Z,79.41
2017-10-26T02:06:47.735Z,79.41
2017-10-26T02:07:59.706Z,79.22
2017-10-26T02:09:12.029Z,78.75
2017-10-26T02:10:24.637Z,78.65
2017-10-26T02:11:37.244Z,77.98
2017-10-26T02:12:49.904Z,77.98
2017-10-26T02:14:02.509Z,77.7
2017-10-26T02:15:14.777Z,77.32
2017-10-26T02:16:27.396Z,76.65
2017-10-26T02:17:39.665Z,76.37
2017-10-26T02:18:51.961Z,76.18
2017-10-26T02:20:04.581Z,75.7
2017-10-26T02:21:17.181Z,76.18
2017-10-26T02:22:30.026Z,75.99
2017-10-26T02:23:42.644Z,75.42
2017-10-26T02:24:54.920Z,75.6
2017-10-26T02:26:07.517Z,75.32
2017-10-26T02:27:19.509Z,75.79
2017-10-26T02:28:32.124Z,75.64
2017-10-26T02:29:44.756Z,75.26
2017-10-26T02:30:57.384Z,75.26
2017-10-26T02:32:09.334Z,75.45
2017-10-26T02:33:21.630Z,75.93
2017-10-26T02:34:33.939Z,75.45
2017-10-26T02:35:46.574Z,75.26
2017-10-26T02:36:59.198Z,75.74
2017-10-26T02:38:11.821Z,75.84
2017-10-26T02:39:24.115Z,75.84
2017-10-26T02:40:36.738Z,76.4
2017-10-26T02:41:49.060Z,76.4
2017-10-26T02:43:01.371Z,76.4
2017-10-26T02:44:14.002Z,77.07
2017-10-26T02:45:26.664Z,76.98
2017-10-26T02:46:38.975Z,77.45
2017-10-26T02:47:51.559Z,77.55
2017-10-26T02:49:04.156Z,78.03
2017-10-26T02:50:16.481Z,77.55
2017-10-26T02:51:28.776Z,77.83
2017-10-26T02:52:41.397Z,77.83
2017-10-26T02:53:54.008Z,78.03
2017-10-26T02:55:06.287Z,78.22
2017-10-26T02:56:18.908Z,78.59
2017-10-26T02:57:31.204Z,78.03
2017-10-26T02:58:43.841Z,78.59
2017-10-26T02:59:56.467Z,78.5
2017-10-26T03:01:08.765Z,78.41
2017-10-26T03:02:21.058Z,78.59
2017-10-26T03:03:33.632Z,78.5
2017-10-26T03:04:45.878Z,78.31
2017-10-26T03:05:57.832Z,78.41
2017-10-26T03:07:10.121Z,78.5
2017-10-26T03:08:22.737Z,78.69
2017-10-26T03:09:35.337Z,78.65
2017-10-26T03:10:47.597Z,78.88
2017-10-26T03:12:00.250Z,78.94
2017-10-26T03:13:12.543Z,79.07
2017-10-26T03:14:25.168Z,80.02
2017-10-26T03:15:37.777Z,80.69
2017-10-26T03:16:50.076Z,81.17
2017-10-26T03:18:02.731Z,81.07
2017-10-26T03:19:15.346Z,80.79
2017-10-26T03:20:27.988Z,80.88
2017-10-26T03:21:40.607Z,81.17
2017-10-26T03:22:53.184Z,80.88
2017-10-26T03:24:05.808Z,81.07
2017-10-26T03:25:18.393Z,81.17
2017-10-26T03:26:30.649Z,81.17
2017-10-26T03:27:42.975Z,81.26
2017-10-26T03:28:55.590Z,81.17
2017-10-26T03:30:08.263Z,80.88
2017-10-26T03:31:20.957Z,80.98
2017-10-26T03:32:32.944Z,80.88
2017-10-26T03:33:45.224Z,81.03
2017-10-26T03:34:57.846Z,81.07
2017-10-26T03:36:10.513Z,81.17
2017-10-26T03:37:22.803Z,81.07
2017-10-26T03:38:35.418Z,81.26
2017-10-26T03:39:47.398Z,80.94
2017-10-26T03:41:00.025Z,81.17
2017-10-26T03:42:12.017Z,81.23
2017-10-26T03:43:24.614Z,80.98
2017-10-26T03:44:37.229Z,80.84
2017-10-26T03:45:49.506Z,80.98
2017-10-26T03:47:02.077Z,80.88
2017-10-26T03:48:14.690Z,80.94
2017-10-26T03:49:26.666Z,80.75
2017-10-26T03:50:38.951Z,80.75
2017-10-26T03:51:51.250Z,81.03
2017-10-26T03:53:03.896Z,80.84
2017-10-26T03:54:16.213Z,80.94
2017-10-26T03:55:28.820Z,80.84
2017-10-26T03:56:41.109Z,81.13
2017-10-26T03:57:53.724Z,81.03
2017-10-26T03:59:06.007Z,81.03
2017-10-26T04:00:18.941Z,80.75
2017-10-26T04:01:31.224Z,81.03
2017-10-26T04:02:43.507Z,80.94
2017-10-26T04:03:55.488Z,81.03
2017-10-26T04:05:08.360Z,80.94
2017-10-26T04:06:20.631Z,80.36
2017-10-26T04:07:33.239Z,80.46
2017-10-26T04:08:45.214Z,80.55
2017-10-26T04:09:57.814Z,80.46
2017-10-26T04:11:10.410Z,80.36
2017-10-26T04:12:22.698Z,80.18
2017-10-26T04:13:35.300Z,80.18
2017-10-26T04:14:47.913Z,80.18
2017-10-26T04:16:00.566Z,80.18
2017-10-26T04:17:12.866Z,80.55
2017-10-26T04:18:25.464Z,80.36
2017-10-26T04:19:38.099Z,80.18
2017-10-26T04:20:49.773Z,80.27
2017-10-26T04:22:02.403Z,80.22
2017-10-26T04:23:14.694Z,79.99
2017-10-26T04:24:26.992Z,80.22
2017-10-26T04:25:38.678Z,79.93
2017-10-26T04:26:50.974Z,79.89
2017-10-26T04:28:03.572Z,79.8
2017-10-26T04:29:16.172Z,79.89
2017-10-26T04:30:28.443Z,80.08
2017-10-26T04:31:41.070Z,79.83
2017-10-26T04:32:53.700Z,80.02
2017-10-26T04:34:06.322Z,80.12
2017-10-26T04:35:18.925Z,79.89
2017-10-26T04:36:31.550Z,79.83
2017-10-26T04:37:43.771Z,79.93
2017-10-26T04:38:56.413Z,80.18
2017-10-26T04:40:08.705Z,80.31
2017-10-26T04:41:21.000Z,80.6
2017-10-26T04:42:33.598Z,80.31
2017-10-26T04:43:46.220Z,80.31
2017-10-26T04:44:58.493Z,80.31
2017-10-26T04:46:11.141Z,80.5
2017-10-26T04:47:23.422Z,80.22
2017-10-26T04:48:36.049Z,80.31
2017-10-26T04:49:48.348Z,80.31
2017-10-26T04:51:00.962Z,80.12
2017-10-26T04:52:13.579Z,80.27
2017-10-26T04:53:26.208Z,80.22
2017-10-26T04:54:38.823Z,80.31
2017-10-26T04:55:51.398Z,80.12
2017-10-26T04:57:03.697Z,80.08
2017-10-26T04:58:16.297Z,80.12
2017-10-26T04:59:28.560Z,80.31
2017-10-26T05:00:40.849Z,80.12
2017-10-26T05:01:53.152Z,80.31
2017-10-26T05:03:05.746Z,80.31
2017-10-26T05:04:17.712Z,80.31
2017-10-26T05:05:30.289Z,80.22
2017-10-26T05:06:42.916Z,80.65
2017-10-26T05:07:55.200Z,80.5
2017-10-26T05:09:07.482Z,80.31
2017-10-26T05:10:19.781Z,80.22
2017-10-26T05:11:32.088Z,80.22
2017-10-26T05:12:44.716Z,80.31
2017-10-26T05:13:57.303Z,80.94
2017-10-26T05:15:09.921Z,80.5
2017-10-26T05:16:22.203Z,80.31
2017-10-26T05:17:34.500Z,80.79
2017-10-26T05:18:47.116Z,80.69
2017-10-26T05:19:59.732Z,80.5
2017-10-26T05:21:12.011Z,80.02
2017-10-26T05:22:24.634Z,80.12
2017-10-26T05:23:37.240Z,80.27
2017-10-26T05:24:49.548Z,80.12
2017-10-26T05:26:02.181Z,80.08
2017-10-26T05:27:14.787Z,80.84
2017-10-26T05:28:27.409Z,80.02
2017-10-26T05:29:39.694Z,80.18
2017-10-26T05:30:52.004Z,80.75
2017-10-26T05:32:04.623Z,80.69
2017-10-26T05:33:17.230Z,80.02
2017-10-26T05:34:29.833Z,80.5
2017-10-26T05:35:42.147Z,80.31
2017-10-26T05:36:54.128Z,80.46
2017-10-26T05:38:06.427Z,80.6
2017-10-26T05:39:18.721Z,80.6
2017-10-26T05:40:31.338Z,80.5
2017-10-26T05:41:43.636Z,80.5
2017-10-26T05:42:56.496Z,80.79
2017-10-26T05:44:08.780Z,80.88
2017-10-26T05:45:21.072Z,80.79
2017-10-26T05:46:33.690Z,80.5
2017-10-26T05:47:46.303Z,80.69
2017-10-26T05:48:58.587Z,80.69
2017-10-26T05:50:11.222Z,80.69
2017-10-26T05:51:23.826Z,80.98
2017-10-26T05:52:36.422Z,80.88
2017-10-26T05:53:48.719Z,80.5
2017-10-26T05:55:01.338Z,80.41
2017-10-26T05:56:13.950Z,80.69
2017-10-26T05:57:26.551Z,80.79
2017-10-26T05:58:38.525Z,80.12
2017-10-26T05:59:50.832Z,80.02
2017-10-26T06:01:03.472Z,80.6
2017-10-26T06:02:16.108Z,80.5
2017-10-26T06:03:28.725Z,80.79
2017-10-26T06:04:41.042Z,80.31
2017-10-26T06:05:53.351Z,80.22
2017-10-26T06:07:05.959Z,80.12
2017-10-26T06:08:18.238Z,80.6
2017-10-26T06:09:30.524Z,80.6
2017-10-26T06:10:43.145Z,80.5
2017-10-26T06:11:55.451Z,80.79
2017-10-26T06:13:08.068Z,80.79
2017-10-26T06:14:20.368Z,80.79
2017-10-26T06:15:32.972Z,80.5
2017-10-26T06:16:45.249Z,80.6
2017-10-26T06:17:57.553Z,80.6
2017-10-26T06:19:10.172Z,80.79
2017-10-26T06:20:22.486Z,80.88
2017-10-26T06:21:35.089Z,80.5
2017-10-26T06:22:46.761Z,80.88
2017-10-26T06:23:59.381Z,80.69
2017-10-26T06:25:11.997Z,80.5
2017-10-26T06:26:23.668Z,80.79
2017-10-26T06:27:36.267Z,80.69
2017-10-26T06:28:48.563Z,80.88
2017-10-26T06:30:00.865Z,80.69
2017-10-26T06:31:13.186Z,80.69
2017-10-26T06:32:25.471Z,80.6
2017-10-26T06:33:37.763Z,80.6
2017-10-26T06:34:50.095Z,80.88
2017-10-26T06:36:02.058Z,80.98
2017-10-26T06:37:14.679Z,80.88
2017-10-26T06:38:26.959Z,80.88
2017-10-26T06:39:39.275Z,80.98
2017-10-26T06:40:51.564Z,81.07
2017-10-26T06:42:04.193Z,80.69
2017-10-26T06:43:16.503Z,80.98
2017-10-26T06:44:28.785Z,81.46
2017-10-26T06:45:41.103Z,81.65
2017-10-26T06:46:53.714Z,81.46
2017-10-26T06:48:06.322Z,82.12
2017-10-26T06:49:18.936Z,81.74
2017-10-26T06:50:31.559Z,82.31
2017-10-26T06:51:43.534Z,82.69
2017-10-26T06:52:55.504Z,82.83
2017-10-26T06:54:07.825Z,82.69
2017-10-26T06:55:20.419Z,83.59
2017-10-26T06:56:32.694Z,83.12
2017-10-26T06:57:44.975Z,83.02
2017-10-26T06:58:57.570Z,82.92
2017-10-26T07:00:09.841Z,83.88
2017-10-26T07:01:22.437Z,84.36
2017-10-26T07:02:34.734Z,84.36
2017-10-26T07:03:47.365Z,84.07
2017-10-26T07:05:00.031Z,84.45
2017-10-26T07:06:12.674Z,83.97
2017-10-26T07:07:24.966Z,84.55
2017-10-26T07:08:37.561Z,84.16
2017-10-26T07:09:50.140Z,84.55
2017-10-26T07:11:02.442Z,83.97
2017-10-26T07:12:15.034Z,84.16
2017-10-26T07:13:27.635Z,84.64
2017-10-26T07:14:39.915Z,85.5
2017-10-26T07:15:52.184Z,85.97
2017-10-26T07:17:04.818Z,86.07
2017-10-26T07:18:17.137Z,86.16
2017-10-26T07:19:29.459Z,86.78
2017-10-26T07:20:41.675Z,87.83
2017-10-26T07:21:53.938Z,87.93
2017-10-26T07:23:06.571Z,88.07
2017-10-26T07:24:18.843Z,88.12
2017-10-26T07:25:31.460Z,88.98
2017-10-26T07:26:43.432Z,88.98
2017-10-26T07:27:55.736Z,90.03
2017-10-26T07:29:08.326Z,88.98
2017-10-26T07:30:20.620Z,88.5
2017-10-26T07:31:32.608Z,88.21
2017-10-26T07:32:44.887Z,89.36
2017-10-26T07:33:57.153Z,88.98
2017-10-26T07:35:09.443Z,89.83
2017-10-26T07:36:22.045Z,89.26
2017-10-26T07:37:34.319Z,89.64
2017-10-26T07:38:46.631Z,90.69
2017-10-26T07:39:59.247Z,90.69
2017-10-26T07:41:11.547Z,90.22
2017-10-26T07:42:24.176Z,91.17
2017-10-26T07:43:35.813Z,92.88
2017-10-26T07:44:48.442Z,92.32
2017-10-26T07:46:00.734Z,92.32
2017-10-26T07:47:13.021Z,92.6
2017-10-26T07:48:25.344Z,93.17
2017-10-26T07:49:37.950Z,92.41
2017-10-26T07:50:50.588Z,93.74
2017-10-26T07:52:02.891Z,92.98
2017-10-26T07:53:15.519Z,93.31
2017-10-26T07:54:27.839Z,93.74
2017-10-26T07:55:40.449Z,93.31
2017-10-26T07:56:53.050Z,93.7
2017-10-26T07:58:05.366Z,95.79
2017-10-26T07:59:17.014Z,96.75
2017-10-26T08:00:29.653Z,96.56
2017-10-26T08:01:42.271Z,94.84
2017-10-26T08:02:54.929Z,94.74
2017-10-26T08:04:07.197Z,94.56
2017-10-26T08:05:18.868Z,96.17
2017-10-26T08:06:30.881Z,96.27
2017-10-26T08:07:43.486Z,96.27
2017-10-26T08:08:56.093Z,97.03
2017-10-26T08:10:08.400Z,98.66
2017-10-26T08:11:20.366Z,98.37
2017-10-26T08:12:32.359Z,99.23
2017-10-26T08:13:44.962Z,99.04
2017-10-26T08:14:56.929Z,98.47
2017-10-26T08:16:09.204Z,97.61
2017-10-26T08:17:21.874Z,97.13
2017-10-26T08:18:34.491Z,99.32
2017-10-26T08:19:47.133Z,99.04
2017-10-26T08:20:59.435Z,98.37
2017-10-26T08:22:11.408Z,98.18
2017-10-26T08:23:24.042Z,97.89
2017-10-26T08:24:35.695Z,98.27
2017-10-26T08:25:48.325Z,97.42
2017-10-26T08:27:00.615Z,97.71
2017-10-26T08:28:12.911Z,97.13
2017-10-26T08:29:24.896Z,98.27
2017-10-26T08:30:37.229Z,97.89
2017-10-26T08:31:49.501Z,98.47
2017-10-26T08:33:01.792Z,98.8
2017-10-26T08:34:14.076Z,98.99
2017-10-26T08:35:26.372Z,99.99
2017-10-26T08:36:38.676Z,99.85
2017-10-26T08:37:51.302Z,99.57
2017-10-26T08:39:03.912Z,99.99
2017-10-26T08:40:16.216Z,99.99
2017-10-26T08:41:28.865Z,99.57
2017-10-26T08:42:41.480Z,99.08
2017-10-26T08:43:54.106Z,99.99
2017-10-26T08:45:06.724Z,99.99
2017-10-26T08:46:18.386Z,99.99
2017-10-26T08:47:30.368Z,99.99
2017-10-26T08:48:43.012Z,99.99
2017-10-26T08:49:55.603Z,99.99
2017-10-26T08:51:07.898Z,99.99
2017-10-26T08:52:20.504Z,99.99
2017-10-26T08:53:33.118Z,99.76
2017-10-26T08:54:45.390Z,99.99
2017-10-26T08:55:58.003Z,99.85
2017-10-26T08:57:10.645Z,99.99
2017-10-26T08:58:22.951Z,99.99
2017-10-26T08:59:35.213Z,99.99
2017-10-26T09:00:47.813Z,99.99
2017-10-26T09:02:00.414Z,99.99
2017-10-26T09:03:12.401Z,99.99
2017-10-26T09:04:25.004Z,99.99
2017-10-26T09:05:37.300Z,99.99
2017-10-26T09:06:49.918Z,99.99
2017-10-26T09:08:02.205Z,99.99
2017-10-26T09:09:14.828Z,99.99
2017-10-26T09:10:27.457Z,99.99
2017-10-26T09:11:39.777Z,99.99
2017-10-26T09:12:52.413Z,99.99
2017-10-26T09:14:04.694Z,99.99
2017-10-26T09:15:17.006Z,99.99
2017-10-26T09:16:29.627Z,99.99
2017-10-26T09:17:42.271Z,99.99
2017-10-26T09:18:54.578Z,99.99
2017-10-26T09:20:07.198Z,99.99
2017-10-26T09:21:19.793Z,99.99
2017-10-26T09:22:32.086Z,99.99
2017-10-26T09:23:44.685Z,99.99
2017-10-26T09:24:57.368Z,99.99
2017-10-26T09:26:09.332Z,99.99
2017-10-26T09:27:21.646Z,99.99
2017-10-26T09:28:34.238Z,99.99
2017-10-26T09:29:46.838Z,99.99
2017-10-26T09:30:59.134Z,99.99
2017-10-26T09:32:11.425Z,99.99
2017-10-26T09:33:24.025Z,99.99
2017-10-26T09:34:36.034Z,99.99
2017-10-26T09:35:48.313Z,99.99
2017-10-26T09:37:00.914Z,99.99
2017-10-26T09:38:12.878Z,99.99
2017-10-26T09:39:25.249Z,99.99
2017-10-26T09:40:37.851Z,99.99
2017-10-26T09:41:50.466Z,99.99
2017-10-26T09:43:03.062Z,99.99
2017-10-26T09:44:15.699Z,99.99
2017-10-26T09:45:27.991Z,99.99
2017-10-26T09:46:40.320Z,99.99
2017-10-26T09:47:52.640Z,99.99
2017-10-26T09:49:05.248Z,99.99
2017-10-26T09:50:17.542Z,99.99
2017-10-26T09:51:30.179Z,99.99
2017-10-26T09:52:42.481Z,99.99
2017-10-26T09:53:55.100Z,99.99
2017-10-26T09:55:07.397Z,99.99
2017-10-26T09:56:19.367Z,99.99
2017-10-26T09:57:31.975Z,99.99
2017-10-26T09:58:43.954Z,99.99
2017-10-26T09:59:56.572Z,99.99
2017-10-26T10:01:09.214Z,99.99
2017-10-26T10:02:21.821Z,99.99
2017-10-26T10:03:34.116Z,99.99
2017-10-26T10:04:46.752Z,99.99
2017-10-26T10:05:58.753Z,99.99
2017-10-26T10:07:10.723Z,99.99
2017-10-26T10:08:23.025Z,99.99
2017-10-26T10:09:34.994Z,99.99
2017-10-26T10:10:47.285Z,99.99
2017-10-26T10:11:59.907Z,99.99
2017-10-26T10:13:12.510Z,99.99
2017-10-26T10:14:25.132Z,99.99
2017-10-26T10:15:37.744Z,99.99
2017-10-26T10:16:50.360Z,99.99
2017-10-26T10:18:02.988Z,99.99
2017-10-26T10:19:15.285Z,99.99
2017-10-26T10:20:27.905Z,99.99
2017-10-26T10:21:40.569Z,99.99
2017-10-26T10:22:53.195Z,99.99
2017-10-26T10:24:05.816Z,99.99
2017-10-26T10:25:18.455Z,99.99
2017-10-26T10:26:30.762Z,99.99
2017-10-26T10:27:43.386Z,99.99
2017-10-26T10:28:55.672Z,99.99
2017-10-26T10:30:08.284Z,99.99
2017-10-26T10:31:20.912Z,99.99
2017-10-26T10:32:33.537Z,99.99
2017-10-26T10:33:45.574Z,99.99
2017-10-26T10:34:57.880Z,99.99
2017-10-26T10:36:09.865Z,99.99
2017-10-26T10:37:22.464Z,99.99
2017-10-26T10:38:35.063Z,99.99
2017-10-26T10:39:47.363Z,99.99
2017-10-26T10:40:59.648Z,99.99
2017-10-26T10:42:12.275Z,99.99
2017-10-26T10:43:24.901Z,99.99
2017-10-26T10:44:37.194Z,99.99
2017-10-26T10:45:49.805Z,99.99
2017-10-26T10:47:01.780Z,99.99
2017-10-26T10:48:14.085Z,99.99
2017-10-26T10:49:26.715Z,99.99
2017-10-26T10:50:38.993Z,99.99
2017-10-26T10:51:51.292Z,99.99
2017-10-26T10:53:03.939Z,99.99
2017-10-26T10:54:16.297Z,99.99
2017-10-26T10:55:28.908Z,99.99
2017-10-26T10:56:41.548Z,99.99
2017-10-26T10:57:54.965Z,99.99
2017-10-26T10:59:07.583Z,99.99
2017-10-26T11:00:20.181Z,99.99
2017-10-26T11:01:32.182Z,99.99
2017-10-26T11:02:44.816Z,99.99
2017-10-26T11:03:57.425Z,99.99
2017-10-26T11:05:09.722Z,99.99
2017-10-26T11:06:22.053Z,99.99
2017-10-26T11:07:34.357Z,99.99
2017-10-26T11:08:46.968Z,99.99
2017-10-26T11:09:58.948Z,99.99
2017-10-26T11:11:11.572Z,99.99
2017-10-26T11:12:24.190Z,99.99
2017-10-26T11:13:36.810Z,99.99
2017-10-26T11:14:49.454Z,99.99
2017-10-26T11:16:02.055Z,99.99
2017-10-26T11:17:14.063Z,99.99
2017-10-26T11:18:26.670Z,99.99
2017-10-26T11:19:39.578Z,99.99
2017-10-26T11:20:52.185Z,99.99
2017-10-26T11:22:04.473Z,99.99
2017-10-26T11:23:16.779Z,99.99
2017-10-26T11:24:29.375Z,99.99
2017-10-26T11:25:41.336Z,99.99
2017-10-26T11:26:53.628Z,99.99
2017-10-26T11:28:05.916Z,99.99
2017-10-26T11:29:17.569Z,99.99
2017-10-26T11:30:30.176Z,99.99
2017-10-26T11:31:42.510Z,99.99
2017-10-26T11:32:54.807Z,99.99
2017-10-26T11:34:07.131Z,99.99
2017-10-26T11:35:19.415Z,99.99
2017-10-26T11:36:32.021Z,99.99
2017-10-26T11:37:44.627Z,99.99
2017-10-26T11:38:57.270Z,99.99
2017-10-26T11:40:09.594Z,99.99
2017-10-26T11:41:22.237Z,99.99
2017-10-26T11:42:34.859Z,99.99
2017-10-26T11:43:46.828Z,99.99
2017-10-26T11:44:59.099Z,99.99
2017-10-26T11:46:11.422Z,99.99
2017-10-26T11:47:23.744Z,99.99
2017-10-26T11:48:36.033Z,99.99
2017-10-26T11:49:48.374Z,99.99
2017-10-26T11:51:00.692Z,99.99
2017-10-26T11:52:12.670Z,99.99
2017-10-26T11:53:24.662Z,99.99
2017-10-26T11:54:37.282Z,99.99
2017-10-26T11:55:49.885Z,99.99
2017-10-26T11:57:02.207Z,99.99
2017-10-26T11:58:14.180Z,99.99
2017-10-26T11:59:26.493Z,99.99
2017-10-26T12:00:38.758Z,99.99
2017-10-26T12:01:50.742Z,99.99
2017-10-26T12:03:03.379Z,99.99
2017-10-26T12:04:15.344Z,99.99
2017-10-26T12:05:27.969Z,99.99
2017-10-26T12:06:40.285Z,99.99
2017-10-26T12:07:52.889Z,99.99
2017-10-26T12:09:04.858Z,99.99
2017-10-26T12:10:17.500Z,99.99
2017-10-26T12:11:29.800Z,99.99
2017-10-26T12:12:41.774Z,99.99
2017-10-26T12:13:53.430Z,99.99
2017-10-26T12:15:06.092Z,99.99
2017-10-26T12:16:18.408Z,99.99
2017-10-26T12:17:31.036Z,99.99
2017-10-26T12:18:43.353Z,99.99
2017-10-26T12:19:56.020Z,99.99
2017-10-26T12:21:08.312Z,99.99
2017-10-26T12:22:20.611Z,99.99
2017-10-26T12:23:32.561Z,99.99
2017-10-26T12:24:45.202Z,99.99
2017-10-26T12:25:57.831Z,99.99
2017-10-26T12:27:10.144Z,99.99
2017-10-26T12:28:22.446Z,99.99
2017-10-26T12:29:34.744Z,99.99
2017-10-26T12:30:47.330Z,99.99
2017-10-26T12:31:59.607Z,99.99
2017-10-26T12:33:12.247Z,99.99
2017-10-26T12:34:23.867Z,99.99
2017-10-26T12:35:36.141Z,99.99
2017-10-26T12:36:47.806Z,99.99
2017-10-26T12:38:00.452Z,99.99
2017-10-26T12:39:12.724Z,99.99
2017-10-26T12:40:25.022Z,99.99
2017-10-26T12:41:37.688Z,99.99
2017-10-26T12:42:50.334Z,99.99
2017-10-26T12:44:02.987Z,99.99
2017-10-26T12:45:15.624Z,99.99
2017-10-26T12:46:28.216Z,99.99
2017-10-26T12:47:40.499Z,99.99
2017-10-26T12:48:52.819Z,99.99
2017-10-26T12:50:05.440Z,99.99
2017-10-26T12:51:17.706Z,99.99
2017-10-26T12:52:29.669Z,99.99
2017-10-26T12:53:41.656Z,99.99
2017-10-26T12:54:54.294Z,99.99
2017-10-26T12:56:06.568Z,99.99
2017-10-26T12:57:18.790Z,99.99
2017-10-26T12:58:31.109Z,99.99
2017-10-26T12:59:43.127Z,99.99
2017-10-26T13:00:55.442Z,99.99
2017-10-26T13:02:07.746Z,99.99
2017-10-26T13:03:19.693Z,99.99
2017-10-26T13:04:31.682Z,99.99
2017-10-26T13:05:44.298Z,99.99
2017-10-26T13:06:56.279Z,99.99
2017-10-26T13:08:08.875Z,99.99
2017-10-26T13:09:21.188Z,99.99
2017-10-26T13:10:33.833Z,99.99
2017-10-26T13:11:46.449Z,99.99
2017-10-26T13:12:59.099Z,99.99
2017-10-26T13:14:11.717Z,99.99
2017-10-26T13:15:23.372Z,99.99
2017-10-26T13:16:35.345Z,99.99
2017-10-26T13:17:47.329Z,99.99
2017-10-26T13:18:59.552Z,99.99
2017-10-26T13:20:12.168Z,99.99
2017-10-26T13:21:24.793Z,99.99
2017-10-26T13:22:36.769Z,99.99
2017-10-26T13:23:49.066Z,99.99
2017-10-26T13:25:01.028Z,99.99
2017-10-26T13:26:13.663Z,99.99
2017-10-26T13:27:26.320Z,99.99
2017-10-26T13:28:38.942Z,99.99
2017-10-26T13:29:51.265Z,99.99
2017-10-26T13:31:03.909Z,99.99
2017-10-26T13:32:15.913Z,99.99
2017-10-26T13:33:28.533Z,99.99
2017-10-26T13:34:40.835Z,99.99
2017-10-26T13:35:53.121Z,99.99
2017-10-26T13:37:05.716Z,99.99
2017-10-26T13:38:18.396Z,99.99
2017-10-26T13:39:30.712Z,99.99
2017-10-26T13:40:43.037Z,99.99
2017-10-26T13:41:55.671Z,99.99
2017-10-26T13:43:07.921Z,99.99
2017-10-26T13:44:19.890Z,99.99
2017-10-26T13:45:32.182Z,99.99
2017-10-26T13:46:44.783Z,99.99
2017-10-26T13:47:57.396Z,99.99
2017-10-26T13:49:09.703Z,99.99
2017-10-26T13:50:22.001Z,99.99
2017-10-26T13:51:34.619Z,99.99
2017-10-26T13:52:46.937Z,99.99
2017-10-26T13:53:59.232Z,99.99
2017-10-26T13:55:11.522Z,99.99
2017-10-26T13:56:23.826Z,99.99
2017-10-26T13:57:36.448Z,99.99
2017-10-26T13:58:49.056Z,99.99
2017-10-26T14:00:01.663Z,99.99
2017-10-26T14:01:13.955Z,99.99
2017-10-26T14:02:26.547Z,99.99
2017-10-26T14:03:39.171Z,99.99
2017-10-26T14:04:51.472Z,99.99
2017-10-26T14:06:04.082Z,99.99
2017-10-26T14:07:16.688Z,99.99
2017-10-26T14:08:28.678Z,99.99
2017-10-26T14:09:41.294Z,99.99
2017-10-26T14:10:53.924Z,99.99
2017-10-26T14:12:05.273Z,99.99
2017-10-26T14:13:17.541Z,99.99
2017-10-26T14:14:30.183Z,99.99
2017-10-26T14:15:42.781Z,99.99
2017-10-26T14:16:55.077Z,99.99
2017-10-26T14:18:07.711Z,99.99
2017-10-26T14:19:20.316Z,99.99
2017-10-26T14:20:32.916Z,99.99
2017-10-26T14:21:45.212Z,99.99
2017-10-26T14:22:57.829Z,99.99
2017-10-26T14:24:10.423Z,99.99
2017-10-26T14:25:22.714Z,99.99
2017-10-26T14:26:35.010Z,99.99
2017-10-26T14:27:47.313Z,99.99
2017-10-26T14:28:59.929Z,99.99
2017-10-26T14:30:12.225Z,99.99
2017-10-26T14:31:24.854Z,99.99
2017-10-26T14:32:37.473Z,99.99
2017-10-26T14:33:49.784Z,99.99
2017-10-26T14:35:02.410Z,99.99
2017-10-26T14:36:14.705Z,99.99
2017-10-26T14:37:27.011Z,99.99
2017-10-26T14:38:39.625Z,99.99
2017-10-26T14:39:52.264Z,99.99
2017-10-26T14:41:04.893Z,99.99
2017-10-26T14:42:17.164Z,99.99
2017-10-26T14:43:29.131Z,99.99
2017-10-26T14:44:41.401Z,99.99
2017-10-26T14:45:54.014Z,99.99
2017-10-26T14:47:06.317Z,99.99
2017-10-26T14:48:18.931Z,99.99
2017-10-26T14:49:31.223Z,99.99
2017-10-26T14:50:43.528Z,99.99
2017-10-26T14:51:56.149Z,99.99
2017-10-26T14:53:08.752Z,99.99
2017-10-26T14:54:21.366Z,99.99
2017-10-26T14:55:33.335Z,99.99
2017-10-26T14:56:45.955Z,99.99
2017-10-26T14:57:58.550Z,99.99
2017-10-26T14:59:11.164Z,99.99
2017-10-26T15:00:23.772Z,99.99
2017-10-26T15:01:36.420Z,99.99
2017-10-26T15:02:48.386Z,99.99
2017-10-26T15:04:00.686Z,99.99
2017-10-26T15:05:13.003Z,99.99
2017-10-26T15:06:25.615Z,99.99
2017-10-26T15:07:37.890Z,99.99
2017-10-26T15:08:50.503Z,99.99
2017-10-26T15:10:03.113Z,99.99
2017-10-26T15:11:15.099Z,99.99
2017-10-26T15:12:27.722Z,99.99
2017-10-26T15:13:40.319Z,99.99
2017-10-26T15:14:52.597Z,99.99
2017-10-26T15:16:04.884Z,99.99
2017-10-26T15:17:17.177Z,99.99
2017-10-26T15:18:28.835Z,99.99
2017-10-26T15:19:41.471Z,99.99
2017-10-26T15:20:53.421Z,99.99
2017-10-26T15:22:05.713Z,99.99
2017-10-26T15:23:18.005Z,99.99
2017-10-26T15:24:30.633Z,99.99
2017-10-26T15:25:43.268Z,99.99
2017-10-26T15:26:55.273Z,99.99
2017-10-26T15:28:07.933Z,99.99
2017-10-26T15:29:20.206Z,99.99
2017-10-26T15:30:32.174Z,99.99
2017-10-26T15:31:44.807Z,99.99
2017-10-26T15:32:57.102Z,99.99
2017-10-26T15:34:09.443Z,99.99
2017-10-26T15:35:22.069Z,99.99